Time;durP1;ratioP1;P1;durP2;ratioP2;P2;SDS_P1;SDS_P2;PMS_P1;PMS_P2;Temp;Humidity;BMP_temperature;BMP_pressure;BME280_temperature;BME280_humidity;BME280_pressure;Samples;Min_cycle;Max_cycle;Signal;HPM_P1;HPM_P2
2022/04/06 07:26:40;;;;;;;4.97;1.88;;;14.10;76.60;;;;;;2299657;62;30260;-75
2022/04/06 07:29:11;;;;;;;3.40;1.73;;;14.10;75.50;;;;;;2284087;62;30439;-73
2022/04/06 07:31:41;;;;;;;4.65;1.70;;;14.20;76.30;;;;;;2291469;62;30300;-74
2022/04/06 07:34:07;;;;;;;2.15;1.70;;;14.20;77.40;;;;;;2283707;62;30116;-72
2022/04/06 07:36:33;;;;;;;4.40;1.85;;;14.20;77.70;;;;;;2291376;62;30016;-72
2022/04/06 07:39:02;;;;;;;3.50;1.30;;;14.30;78.00;;;;;;2291326;62;30281;-72
2022/04/06 07:41:28;;;;;;;1.95;1.40;;;14.30;78.50;;;;;;2288531;62;34232;-73
2022/04/06 07:43:54;;;;;;;2.78;1.48;;;14.40;78.70;;;;;;2280888;62;30854;-73
2022/04/06 07:46:20;;;;;;;5.80;1.83;;;14.40;78.80;;;;;;2291202;62;30282;-72
2022/04/06 07:48:46;;;;;;;2.08;1.58;;;14.40;79.00;;;;;;2291076;62;30205;-71
2022/04/06 07:51:12;;;;;;;3.63;1.85;;;14.50;79.20;;;;;;2291261;62;30300;-70
2022/04/06 07:53:38;;;;;;;5.30;1.70;;;14.50;79.40;;;;;;2291239;62;30265;-70
2022/04/06 07:56:06;;;;;;;4.88;2.08;;;14.50;79.50;;;;;;2283497;62;31928;-70
2022/04/06 07:58:32;;;;;;;2.92;1.80;;;14.50;79.70;;;;;;2283233;62;30374;-71
2022/04/06 08:00:58;;;;;;;3.42;1.85;;;14.50;79.70;;;;;;2275399;62;30556;-70
2022/04/06 08:03:24;;;;;;;4.75;1.80;;;14.50;79.80;;;;;;2282962;62;30670;-70
2022/04/06 08:05:50;;;;;;;2.42;1.60;;;14.50;79.70;;;;;;2282976;62;30097;-70
2022/04/06 08:08:16;;;;;;;4.55;1.88;;;14.50;79.70;;;;;;2282792;62;30020;-70
2022/04/06 08:10:42;;;;;;;3.40;1.90;;;14.50;79.80;;;;;;2283043;62;30090;-71
2022/04/06 08:13:08;;;;;;;2.78;1.80;;;14.50;80.10;;;;;;2283065;62;30102;-71
2022/04/06 08:15:37;;;;;;;2.47;1.67;;;14.50;79.70;;;;;;2282639;62;30276;-70
2022/04/06 08:18:03;;;;;;;2.17;1.50;;;14.50;79.70;;;;;;2282486;62;30236;-70
2022/04/06 08:20:29;;;;;;;2.33;1.40;;;14.50;79.90;;;;;;2275469;62;30054;-72
2022/04/06 08:22:56;;;;;;;3.45;1.60;;;14.50;79.70;;;;;;2275276;62;31082;-72
2022/04/06 08:25:22;;;;;;;2.40;1.40;;;14.50;79.60;;;;;;2268547;62;30557;-70
2022/04/06 08:27:48;;;;;;;3.80;1.60;;;14.50;79.50;;;;;;2275532;62;30097;-68
2022/04/06 08:30:25;;;;;;;1.27;1.17;;;14.50;79.60;;;;;;2288830;62;30203;-71
2022/04/06 08:32:51;;;;;;;2.97;1.52;;;14.50;79.30;;;;;;2283015;62;31014;-71
2022/04/06 08:35:19;;;;;;;3.33;1.60;;;14.50;79.40;;;;;;2290796;62;30247;-73
2022/04/06 08:37:45;;;;;;;3.97;1.70;;;14.50;79.30;;;;;;2278401;62;30112;-73
2022/04/06 08:40:12;;;;;;;6.20;1.40;;;14.50;79.40;;;;;;2285158;62;30037;-73
2022/04/06 08:42:37;;;;;;;4.13;1.42;;;14.50;79.10;;;;;;2278037;62;30889;-72
2022/04/06 08:45:07;;;;;;;2.88;1.65;;;14.50;79.20;;;;;;2285103;62;30954;-72
2022/04/06 08:47:33;;;;;;;3.25;1.20;;;14.50;79.10;;;;;;2285360;62;30238;-69
2022/04/06 08:50:03;;;;;;;2.70;1.63;;;14.50;79.30;;;;;;2271252;62;30050;-69
2022/04/06 08:52:32;;;;;;;2.40;1.40;;;14.50;78.90;;;;;;2271269;62;30815;-70
2022/04/06 08:54:58;;;;;;;1.92;1.38;;;14.50;78.90;;;;;;2285408;62;30533;-69
2022/04/06 08:57:24;;;;;;;3.17;1.30;;;14.50;79.00;;;;;;2285037;62;30039;-69
2022/04/06 08:59:50;;;;;;;2.67;1.20;;;14.50;78.70;;;;;;2277755;62;30330;-69
2022/04/06 09:02:19;;;;;;;3.22;1.40;;;14.50;78.90;;;;;;2284835;62;30690;-69
2022/04/06 09:04:52;;;;;;;4.30;1.45;;;14.50;78.60;;;;;;2270894;62;30367;-69
2022/04/06 09:07:20;;;;;;;2.67;1.48;;;14.50;79.10;;;;;;2277886;62;30351;-70
2022/04/06 09:09:53;;;;;;;1.88;1.20;;;14.60;78.50;;;;;;2285083;62;30105;-70
2022/04/06 09:12:22;;;;;;;2.03;1.10;;;14.50;78.10;;;;;;2284410;62;30295;-69
2022/04/06 09:14:49;;;;;;;3.88;1.92;;;14.60;78.30;;;;;;2285126;62;30669;-70
2022/04/06 09:17:20;;;;;;;3.55;1.40;;;14.60;78.40;;;;;;2270661;62;30730;-69
2022/04/06 09:19:47;;;;;;;1.50;0.95;;;14.60;78.10;;;;;;2277347;62;30222;-70
2022/04/06 09:22:16;;;;;;;4.57;1.50;;;14.50;78.30;;;;;;2277720;62;31175;-69
2022/04/06 09:24:42;;;;;;;2.60;1.50;;;14.60;78.00;;;;;;2277785;62;30430;-69
2022/04/06 09:27:08;;;;;;;3.17;1.30;;;14.60;78.10;;;;;;2285068;62;30279;-70
2022/04/06 09:29:35;;;;;;;1.38;1.08;;;14.70;78.70;;;;;;2284976;62;30366;-67
2022/04/06 09:32:10;;;;;;;3.90;1.38;;;14.70;77.80;;;;;;2277889;62;31224;-68
2022/04/06 09:34:37;;;;;;;2.10;1.15;;;14.70;77.70;;;;;;2284943;62;30510;-70
2022/04/06 09:37:26;;;;;;;3.60;1.20;;;14.70;77.50;;;;;;2285121;62;30125;-68
2022/04/06 09:39:52;;;;;;;2.83;1.30;;;14.70;77.30;;;;;;2284922;62;30083;-67
2022/04/06 09:42:26;;;;;;;4.20;1.75;;;14.70;77.50;;;;;;2284930;62;30801;-68
2022/04/06 09:47:40;;;;;;;3.30;1.70;;;14.80;77.50;;;;;;2284596;62;30059;-67
2022/04/06 09:50:30;;;;;;;6.68;1.70;;;14.70;77.30;;;;;;2284631;62;29961;-68
2022/04/06 09:53:00;;;;;;;1.83;1.40;;;14.80;76.90;;;;;;2285029;62;30874;-68
2022/04/06 09:55:26;;;;;;;3.25;1.60;;;14.80;77.40;;;;;;2284514;62;30621;-68
2022/04/06 09:57:56;;;;;;;3.35;1.30;;;14.80;78.20;;;;;;2285013;62;30193;-67
2022/04/06 10:00:29;;;;;;;2.95;1.65;;;14.80;77.20;;;;;;2270717;62;30288;-68
2022/04/06 10:03:06;;;;;;;7.03;1.55;;;14.80;77.10;;;;;;2277546;62;31317;-68
2022/04/06 10:05:33;;;;;;;3.03;1.30;;;14.80;77.10;;;;;;2284898;62;30144;-68
2022/04/06 10:08:09;;;;;;;2.65;1.38;;;14.80;77.10;;;;;;2270645;62;30575;-68
2022/04/06 10:10:40;;;;;;;4.88;1.45;;;14.80;77.00;;;;;;2271187;62;30063;-68
2022/04/06 10:13:07;;;;;;;3.27;1.40;;;14.80;77.20;;;;;;2277679;62;30645;-69
2022/04/06 10:15:34;;;;;;;4.57;1.58;;;14.80;77.10;;;;;;2274357;62;30737;-70
2022/04/06 10:18:02;;;;;;;2.60;1.27;;;14.90;77.40;;;;;;2277373;62;30297;-69
2022/04/06 10:20:55;;;;;;;3.90;1.50;;;14.80;77.20;;;;;;2277426;62;30709;-69
2022/04/06 10:23:42;;;;;;;2.33;1.33;;;14.80;77.30;;;;;;2270557;62;30855;-70
2022/04/06 10:26:14;;;;;;;3.70;1.60;;;14.80;76.90;;;;;;2277467;62;30641;-69
2022/04/06 10:28:44;;;;;;;;;;;14.80;77.00;;;;;;2284887;62;30191;-70
2022/04/06 10:31:25;;;;;;;4.72;1.50;;;14.90;76.90;;;;;;2277413;62;30206;-70
2022/04/06 10:34:31;;;;;;;3.95;1.63;;;14.80;77.00;;;;;;2284844;62;30990;-70
2022/04/06 10:37:05;;;;;;;3.20;1.30;;;14.90;76.50;;;;;;2284556;62;32030;-69
2022/04/06 10:39:31;;;;;;;3.85;1.77;;;14.90;76.90;;;;;;2270736;62;30077;-69
2022/04/06 10:42:33;;;;;;;4.40;1.42;;;14.80;76.80;;;;;;2276005;62;30266;-69
2022/04/06 10:44:59;;;;;;;3.15;1.30;;;14.90;76.90;;;;;;2268759;62;30830;-70
2022/04/06 10:47:25;;;;;;;3.60;1.50;;;14.80;77.00;;;;;;2276871;62;30283;-70
2022/04/06 10:50:21;;;;;;;3.22;1.65;;;14.90;76.90;;;;;;2278875;62;30402;-70
2022/04/06 10:52:47;;;;;;;5.03;1.50;;;14.90;76.70;;;;;;2277434;62;30265;-70
2022/04/06 10:55:31;;;;;;;3.22;1.80;;;14.90;77.00;;;;;;2283641;62;30060;-69
2022/04/06 10:58:01;;;;;;;3.10;1.60;;;15.00;76.70;;;;;;2284474;62;30665;-70
2022/04/06 11:00:27;;;;;;;4.75;1.83;;;15.00;76.80;;;;;;2277124;62;30176;-70
2022/04/06 11:02:54;;;;;;;2.75;1.40;;;15.00;76.60;;;;;;2282000;62;30059;-70
2022/04/06 11:05:46;;;;;;;4.07;1.67;;;15.00;76.60;;;;;;2270166;62;30863;-69
2022/04/06 11:11:39;;;;;;;3.58;1.52;;;15.10;76.30;;;;;;2282288;62;30487;-68
2022/04/06 11:14:05;;;;;;;3.70;1.42;;;15.10;76.90;;;;;;2284583;62;30185;-75
2022/04/06 11:16:44;;;;;;;3.35;1.70;;;15.10;76.50;;;;;;2276968;62;30173;-73
2022/04/06 11:19:11;;;;;;;2.88;1.33;;;15.10;76.20;;;;;;2277016;62;30135;-71
2022/04/06 11:21:56;;;;;;;4.38;1.65;;;15.20;76.50;;;;;;2282198;62;30170;-71
2022/04/06 11:24:23;;;;;;;3.28;1.75;;;15.20;76.10;;;;;;2268426;62;30502;-72
2022/04/06 11:26:49;;;;;;;2.67;1.40;;;15.10;76.30;;;;;;2275937;62;30041;-71
2022/04/06 11:29:15;;;;;;;4.32;1.70;;;15.10;76.30;;;;;;2268916;62;30013;-73
2022/04/06 11:31:54;;;;;;;5.47;1.75;;;15.10;76.20;;;;;;2274189;62;30312;-73
2022/04/06 11:34:38;;;;;;;3.40;1.55;;;15.10;76.10;;;;;;2284288;62;30267;-72
2022/04/06 11:37:06;;;;;;;5.03;1.80;;;15.10;76.30;;;;;;2277099;62;31995;-72
2022/04/06 11:39:32;;;;;;;3.60;1.50;;;15.10;76.50;;;;;;2276467;62;30239;-72
2022/04/06 11:42:00;;;;;;;5.03;1.42;;;15.20;76.30;;;;;;2277072;62;30207;-70
2022/04/06 11:44:26;;;;;;;3.63;1.48;;;15.20;76.20;;;;;;2284254;62;30234;-71
2022/04/06 11:46:52;;;;;;;3.60;1.90;;;15.30;76.30;;;;;;2283670;62;30113;-70
2022/04/06 11:49:29;;;;;;;3.38;1.63;;;15.30;76.20;;;;;;2284126;62;30551;-72
2022/04/06 11:51:57;;;;;;;2.05;1.40;;;15.30;76.00;;;;;;2276037;62;30128;-71
2022/04/06 11:54:23;;;;;;;2.70;1.67;;;15.30;75.90;;;;;;2276516;62;30231;-72
2022/04/06 11:56:50;;;;;;;2.60;1.40;;;15.30;76.00;;;;;;2276828;62;30708;-73
2022/04/06 11:59:18;;;;;;;6.72;2.00;;;15.30;76.00;;;;;;2282012;62;30065;-73
2022/04/06 12:01:46;;;;;;;3.85;1.50;;;15.30;76.20;;;;;;2273604;62;30195;-76
2022/04/06 12:04:13;;;;;;;3.83;1.70;;;15.30;76.10;;;;;;2282760;62;30045;-75
2022/04/06 12:06:39;;;;;;;3.60;1.60;;;15.30;76.00;;;;;;2276379;62;30313;-73
2022/04/06 12:09:06;;;;;;;3.80;1.55;;;15.30;76.10;;;;;;2283642;62;30822;-76
2022/04/06 12:11:34;;;;;;;3.70;1.83;;;15.30;76.00;;;;;;2280760;62;30140;-76
2022/04/06 12:14:00;;;;;;;2.17;1.63;;;15.40;76.00;;;;;;2282360;62;30536;-75
2022/04/06 12:16:25;;;;;;;3.30;1.45;;;15.30;76.00;;;;;;2284489;62;32291;-75
2022/04/06 12:18:51;;;;;;;5.28;1.90;;;15.30;76.00;;;;;;2277243;62;30399;-70
2022/04/06 12:21:28;;;;;;;5.93;1.95;;;15.30;75.90;;;;;;2277433;62;30593;-72
2022/04/06 12:23:54;;;;;;;3.67;1.63;;;15.30;75.70;;;;;;2271009;62;30695;-75
2022/04/06 12:26:24;;;;;;;4.15;1.58;;;15.30;75.90;;;;;;2266197;62;30831;-74
2022/04/06 12:28:59;;;;;;;3.78;1.77;;;15.30;75.90;;;;;;2272420;62;30703;-76
2022/04/06 12:31:38;;;;;;;3.30;1.70;;;15.40;75.80;;;;;;2272269;62;30103;-75
2022/04/06 12:34:04;;;;;;;4.28;1.83;;;15.50;75.90;;;;;;2276659;62;30875;-73
2022/04/06 12:36:31;;;;;;;7.32;1.52;;;15.50;75.80;;;;;;2276361;62;31208;-75
2022/04/06 12:38:59;;;;;;;3.15;1.52;;;15.60;75.70;;;;;;2275594;62;30585;-74
2022/04/06 12:41:26;;;;;;;4.78;1.65;;;15.50;75.50;;;;;;2272503;62;30188;-75
2022/04/06 12:43:53;;;;;;;4.30;1.70;;;15.50;75.40;;;;;;2263638;62;30998;-76
2022/04/06 12:46:54;;;;;;;5.13;2.22;;;15.50;75.50;;;;;;2271083;62;30324;-75
2022/04/06 12:49:25;;;;;;;4.53;1.83;;;15.40;75.10;;;;;;2247566;63;30484;-77
2022/04/06 12:52:03;;;;;;;4.72;1.77;;;15.40;75.50;;;;;;2269240;62;30110;-75
2022/04/06 12:54:33;;;;;;;4.07;1.67;;;15.40;75.40;;;;;;2260451;62;30408;-73
2022/04/06 12:57:03;;;;;;;4.57;1.98;;;15.40;75.70;;;;;;2265390;62;31600;-75
2022/04/06 12:59:55;;;;;;;4.05;1.73;;;15.50;75.60;;;;;;2267758;62;30651;-75
2022/04/06 13:02:21;;;;;;;2.33;1.27;;;15.40;75.60;;;;;;2267044;62;30006;-76
2022/04/06 13:04:48;;;;;;;5.72;1.63;;;15.40;75.60;;;;;;2266866;62;30205;-76
2022/04/06 13:07:13;;;;;;;4.30;1.63;;;15.40;75.70;;;;;;2265522;62;30645;-80
2022/04/06 13:09:53;;;;;;;3.90;1.70;;;15.40;75.70;;;;;;2263248;62;30205;-78
2022/04/06 13:12:24;;;;;;;6.45;1.70;;;15.40;75.70;;;;;;2258575;63;30342;-77
2022/04/06 13:14:50;;;;;;;3.30;1.50;;;15.40;75.80;;;;;;2260458;62;30286;-77
2022/04/06 13:17:16;;;;;;;4.45;1.90;;;15.40;75.80;;;;;;2266829;62;30143;-78
2022/04/06 13:19:43;;;;;;;4.25;1.60;;;15.40;75.80;;;;;;2266699;62;30306;-77
2022/04/06 13:22:09;;;;;;;3.15;1.65;;;15.40;75.80;;;;;;2267283;62;29999;-76
2022/04/06 13:24:35;;;;;;;4.25;1.60;;;15.40;75.80;;;;;;2268306;62;30316;-76
2022/04/06 13:27:02;;;;;;;4.70;1.95;;;15.50;75.80;;;;;;2283063;62;30948;-76
2022/04/06 13:29:28;;;;;;;4.68;2.00;;;15.50;75.80;;;;;;2276240;62;30234;-76
2022/04/06 13:31:54;;;;;;;4.25;1.60;;;15.50;75.80;;;;;;2283166;62;30227;-76
2022/04/06 13:34:20;;;;;;;5.28;1.95;;;15.50;75.70;;;;;;2275821;62;30488;-76
2022/04/06 13:36:50;;;;;;;3.40;1.60;;;15.50;75.70;;;;;;2283220;62;30870;-75
2022/04/06 13:39:16;;;;;;;4.03;1.70;;;15.60;75.80;;;;;;2283530;62;30641;-76
2022/04/06 13:41:42;;;;;;;5.25;1.65;;;15.50;75.80;;;;;;2269572;62;30172;-76
2022/04/06 13:44:08;;;;;;;5.47;1.90;;;15.60;75.70;;;;;;2276409;62;29999;-77
2022/04/06 13:46:34;;;;;;;6.95;2.00;;;15.60;75.60;;;;;;2276296;62;31353;-78
2022/04/06 13:49:00;;;;;;;4.65;1.65;;;15.70;75.70;;;;;;2283678;62;30588;-79
2022/04/06 13:51:30;;;;;;;5.13;1.80;;;15.70;75.80;;;;;;2283917;62;29957;-77
2022/04/06 13:53:56;;;;;;;4.38;1.80;;;15.70;75.60;;;;;;2271978;62;30348;-77
2022/04/06 13:56:21;;;;;;;4.32;1.90;;;15.70;75.60;;;;;;2283201;62;30191;-77
2022/04/06 13:58:47;;;;;;;7.53;1.80;;;15.70;75.60;;;;;;2283904;62;30105;-77
2022/04/06 14:01:13;;;;;;;6.05;2.10;;;15.70;75.60;;;;;;2274414;62;30259;-76
2022/04/06 14:03:39;;;;;;;3.50;1.60;;;15.70;75.60;;;;;;2275888;62;30013;-78
2022/04/06 14:06:08;;;;;;;6.03;2.03;;;15.60;75.70;;;;;;2268217;62;30107;-77
2022/04/06 14:08:34;;;;;;;3.17;1.85;;;15.70;75.80;;;;;;2268222;62;30915;-77
2022/04/06 14:11:00;;;;;;;7.22;1.90;;;15.60;75.50;;;;;;2275673;62;30236;-77
2022/04/06 14:13:30;;;;;;;3.65;1.95;;;15.60;75.60;;;;;;2275600;62;30141;-77
2022/04/06 14:15:56;;;;;;;9.70;2.42;;;15.60;75.60;;;;;;2268029;62;30926;-81
2022/04/06 14:18:21;;;;;;;4.18;2.08;;;15.60;76.10;;;;;;2281648;62;30655;-80
2022/04/06 14:20:47;;;;;;;4.15;1.88;;;15.60;77.30;;;;;;2282530;62;32323;-80
2022/04/06 14:23:13;;;;;;;4.82;2.22;;;15.70;78.20;;;;;;2276009;62;30112;-76
2022/04/06 14:25:41;;;;;;;3.95;1.73;;;15.70;78.70;;;;;;2283704;62;30574;-77
2022/04/06 14:28:08;;;;;;;10.88;2.50;;;15.80;78.30;;;;;;2283620;62;30533;-77
2022/04/06 14:30:33;;;;;;;3.45;1.55;;;15.70;77.60;;;;;;2269545;62;30054;-78
2022/04/06 14:33:00;;;;;;;4.32;1.60;;;15.70;77.20;;;;;;2275902;62;30252;-77
2022/04/06 14:35:26;;;;;;;3.08;1.48;;;15.70;76.70;;;;;;2275826;62;30133;-78
2022/04/06 14:37:54;;;;;;;4.65;2.03;;;15.60;76.40;;;;;;2283606;62;30132;-77
2022/04/06 14:40:19;;;;;;;4.05;1.60;;;15.60;76.20;;;;;;2283639;62;30403;-77
2022/04/06 14:42:45;;;;;;;3.83;1.92;;;15.60;76.00;;;;;;2276004;62;30336;-77
2022/04/06 14:45:12;;;;;;;2.90;1.52;;;15.60;75.80;;;;;;2276173;62;32329;-77
2022/04/06 14:47:38;;;;;;;2.65;1.33;;;15.60;75.80;;;;;;2269615;62;30299;-77
2022/04/06 14:50:05;;;;;;;3.75;1.70;;;15.50;75.70;;;;;;2281559;62;30217;-77
2022/04/06 14:52:31;;;;;;;2.83;1.20;;;15.60;75.70;;;;;;2274477;62;30162;-77
2022/04/06 14:54:57;;;;;;;5.55;1.50;;;15.60;75.60;;;;;;2269136;62;30353;-77
2022/04/06 14:57:23;;;;;;;2.85;1.50;;;15.50;75.50;;;;;;2283474;62;30883;-77
2022/04/06 14:59:49;;;;;;;3.90;1.58;;;15.50;75.60;;;;;;2282930;62;30694;-76
2022/04/06 15:02:15;;;;;;;3.88;1.63;;;15.50;75.60;;;;;;2282407;62;30197;-77
2022/04/06 15:04:41;;;;;;;2.63;1.30;;;15.50;75.60;;;;;;2275771;62;30951;-76
2022/04/06 15:07:17;;;;;;;2.83;1.40;;;15.40;75.50;;;;;;2283241;62;30117;-76
2022/04/06 15:09:46;;;;;;;2.75;1.52;;;15.40;75.60;;;;;;2269508;62;30219;-78
2022/04/06 15:12:12;;;;;;;1.85;1.33;;;15.40;75.60;;;;;;2281871;62;30351;-76
2022/04/06 15:14:39;;;;;;;3.00;1.48;;;15.40;75.60;;;;;;2282576;62;30210;-77
2022/04/06 15:17:06;;;;;;;1.70;1.00;;;15.40;75.70;;;;;;2274848;62;30301;-76
2022/04/06 15:19:32;;;;;;;2.70;1.02;;;15.40;75.70;;;;;;2275818;62;30087;-76
2022/04/06 15:21:59;;;;;;;3.72;1.58;;;15.30;75.80;;;;;;2282460;62;30065;-76
2022/04/06 15:24:24;;;;;;;2.58;1.35;;;15.30;76.30;;;;;;2268739;62;30878;-79
2022/04/06 15:26:51;;;;;;;2.80;1.10;;;15.30;76.20;;;;;;2281918;62;30379;-82
2022/04/06 15:29:17;;;;;;;1.83;1.25;;;15.30;76.40;;;;;;2267215;62;30653;-77
2022/04/06 15:31:42;;;;;;;2.03;1.13;;;15.30;76.70;;;;;;2281763;62;30115;-77
2022/04/06 15:34:08;;;;;;;1.85;0.80;;;15.30;76.60;;;;;;2283234;62;30765;-76
2022/04/06 15:39:21;;;;;;;2.22;1.20;;;15.30;76.60;;;;;;2276933;62;30602;-77
2022/04/06 15:41:47;;;;;;;2.35;1.23;;;15.30;76.60;;;;;;2283264;62;30140;-77
2022/04/06 15:44:13;;;;;;;2.10;1.08;;;15.20;76.50;;;;;;2283104;62;31955;-77
2022/04/06 15:46:39;;;;;;;2.60;1.13;;;15.20;76.50;;;;;;2281286;62;31614;-78
2022/04/06 15:49:05;;;;;;;3.03;1.25;;;15.20;76.60;;;;;;2284650;62;30228;-77
2022/04/06 15:51:31;;;;;;;2.10;1.27;;;15.10;76.70;;;;;;2284554;62;30490;-76
2022/04/06 15:53:57;;;;;;;3.95;1.15;;;15.10;76.70;;;;;;2284339;62;30010;-77
2022/04/06 15:56:23;;;;;;;2.15;1.05;;;15.10;76.80;;;;;;2284466;62;30575;-76
2022/04/06 15:58:48;;;;;;;1.63;1.23;;;15.10;76.80;;;;;;2284580;62;30324;-77
2022/04/06 16:01:14;;;;;;;1.80;1.23;;;15.10;77.00;;;;;;2284237;62;30333;-76
2022/04/06 16:03:40;;;;;;;2.85;1.40;;;15.00;76.90;;;;;;2284353;62;30843;-76
2022/04/06 16:06:06;;;;;;;4.00;1.35;;;15.10;77.00;;;;;;2284081;62;30641;-76
2022/04/06 16:08:32;;;;;;;2.33;1.40;;;15.10;77.10;;;;;;2268503;62;30222;-75
2022/04/06 16:10:58;;;;;;;2.58;1.40;;;15.10;77.00;;;;;;2283979;62;29882;-77
2022/04/06 16:13:24;;;;;;;1.48;1.38;;;15.10;76.90;;;;;;2283290;62;30813;-76
2022/04/06 16:15:51;;;;;;;3.08;1.50;;;15.20;76.90;;;;;;2275287;62;30414;-78
2022/04/06 16:18:17;;;;;;;3.10;1.70;;;15.20;76.90;;;;;;2267879;62;30019;-79
2022/04/06 16:20:42;;;;;;;2.00;1.30;;;15.10;76.80;;;;;;2276890;62;30253;-76
2022/04/06 16:23:08;;;;;;;4.03;1.50;;;15.10;76.70;;;;;;2276641;62;30907;-75
2022/04/06 16:25:34;;;;;;;2.90;1.60;;;15.10;76.70;;;;;;2284864;62;30428;-75
2022/04/06 16:28:01;;;;;;;4.13;1.50;;;15.20;76.80;;;;;;2285010;62;30430;-74
2022/04/06 16:30:26;;;;;;;2.08;1.40;;;15.10;76.70;;;;;;2277861;62;30453;-81
2022/04/06 16:32:55;;;;;;;1.70;1.45;;;15.20;76.80;;;;;;2280522;62;30417;-81
2022/04/06 16:35:21;;;;;;;2.35;1.48;;;15.10;76.80;;;;;;2284835;62;30295;-81
2022/04/06 16:37:47;;;;;;;4.68;1.40;;;15.10;76.70;;;;;;2277877;62;30008;-80
2022/04/06 16:40:14;;;;;;;4.20;1.60;;;15.10;76.80;;;;;;2285125;62;30286;-86
2022/04/06 16:42:40;;;;;;;2.00;1.60;;;15.10;76.80;;;;;;2284904;62;30677;-81
2022/04/06 16:45:06;;;;;;;5.13;2.50;;;15.10;77.00;;;;;;2285128;62;30011;-81
2022/04/06 16:47:32;;;;;;;4.88;2.30;;;15.10;77.20;;;;;;2270010;62;29988;-83
2022/04/06 16:52:52;;;;;;;8.68;2.35;;;15.10;77.40;;;;;;2284500;62;31383;-80
2022/04/06 16:55:19;;;;;;;7.65;3.20;;;15.00;77.20;;;;;;2281768;62;30111;-77
2022/04/06 16:57:45;;;;;;;12.88;3.85;;;15.10;77.30;;;;;;2274351;62;30221;-74
2022/04/06 17:00:15;;;;;;;16.38;4.70;;;15.00;77.50;;;;;;2271076;62;30372;-78
2022/04/06 17:02:43;;;;;;;13.10;3.92;;;15.00;77.60;;;;;;2277379;62;31182;-76
2022/04/06 17:05:10;;;;;;;12.10;4.32;;;15.10;77.80;;;;;;2277826;62;30168;-79
2022/04/06 17:07:36;;;;;;;8.07;3.30;;;15.10;77.70;;;;;;2277819;62;30322;-80
2022/04/06 17:10:06;;;;;;;11.90;3.10;;;15.10;77.70;;;;;;2282148;62;30306;-83
2022/04/06 17:12:32;;;;;;;7.70;2.90;;;15.10;78.00;;;;;;2283715;62;30118;-81
2022/04/06 17:15:01;;;;;;;6.57;2.78;;;15.10;77.60;;;;;;2284704;62;30493;-80
2022/04/06 17:17:27;;;;;;;9.18;2.85;;;15.10;78.00;;;;;;2277492;62;30145;-80
2022/04/06 17:19:53;;;;;;;5.70;2.60;;;15.10;77.90;;;;;;2276917;62;30300;-79
2022/04/06 17:22:20;;;;;;;7.07;2.40;;;15.10;78.00;;;;;;2277558;62;30999;-81
2022/04/06 17:24:46;;;;;;;5.07;2.38;;;15.10;78.10;;;;;;2284751;62;30430;-79
2022/04/06 17:27:13;;;;;;;8.80;2.75;;;15.10;78.00;;;;;;2285299;62;30265;-78
2022/04/06 17:29:38;;;;;;;8.30;2.28;;;15.10;78.00;;;;;;2276180;62;30470;-78
2022/04/06 17:32:04;;;;;;;5.70;2.28;;;15.20;78.00;;;;;;2283584;62;31806;-79
2022/04/06 17:34:30;;;;;;;4.65;1.90;;;15.20;78.10;;;;;;2285100;62;30218;-79
2022/04/06 17:36:56;;;;;;;5.00;1.77;;;15.30;78.00;;;;;;2285051;62;30246;-79
2022/04/06 17:39:23;;;;;;;5.00;1.77;;;15.30;78.00;;;;;;2277516;62;30333;-78
2022/04/06 17:41:50;;;;;;;5.20;1.70;;;15.40;78.00;;;;;;2270962;62;31374;-77
2022/04/06 17:44:16;;;;;;;2.65;1.48;;;15.40;77.90;;;;;;2285139;62;30217;-78
2022/04/06 17:46:42;;;;;;;5.57;1.70;;;15.50;77.90;;;;;;2284633;62;29924;-80
2022/04/06 17:49:11;;;;;;;5.57;1.65;;;15.50;77.90;;;;;;2270880;62;30144;-77
2022/04/06 17:51:40;;;;;;;3.67;1.60;;;15.50;77.70;;;;;;2285199;62;30067;-79
2022/04/06 17:54:06;;;;;;;5.03;1.25;;;15.60;77.80;;;;;;2277523;62;30160;-79
2022/04/06 17:56:33;;;;;;;3.67;1.20;;;15.70;77.60;;;;;;2281881;62;30238;-80
2022/04/06 17:58:59;;;;;;;2.88;1.35;;;15.70;77.60;;;;;;2284448;62;30232;-80
2022/04/06 18:01:24;;;;;;;2.05;1.10;;;15.80;77.70;;;;;;2276734;62;30832;-80
2022/04/06 18:03:51;;;;;;;3.75;1.23;;;15.80;77.70;;;;;;2284786;62;30335;-80
2022/04/06 18:06:16;;;;;;;2.33;1.20;;;15.90;77.60;;;;;;2277126;62;30166;-81
2022/04/06 18:08:42;;;;;;;2.13;1.00;;;15.90;77.60;;;;;;2284679;62;30158;-80
2022/04/06 18:13:53;;;;;;;4.22;1.25;;;16.00;77.50;;;;;;2278213;62;30082;-82
2022/04/06 18:16:19;;;;;;;5.07;1.10;;;16.00;77.50;;;;;;2277397;62;30162;-82
2022/04/06 18:18:46;;;;;;;3.90;0.90;;;16.00;77.50;;;;;;2277488;62;30257;-82
2022/04/06 18:21:13;;;;;;;1.20;0.90;;;16.00;77.60;;;;;;2277161;62;30843;-81
2022/04/06 18:23:39;;;;;;;1.20;0.90;;;16.10;77.70;;;;;;2276416;62;30250;-84
2022/04/06 18:26:05;;;;;;;2.55;0.82;;;16.10;77.50;;;;;;2276781;62;30103;-82
2022/04/06 18:28:33;;;;;;;2.58;1.00;;;16.10;77.50;;;;;;2284583;62;30326;-83
2022/04/06 18:30:59;;;;;;;2.28;0.70;;;16.10;77.50;;;;;;2276839;62;30935;-81
2022/04/06 18:33:25;;;;;;;0.93;0.60;;;16.10;77.40;;;;;;2284678;62;31249;-83
2022/04/06 18:35:55;;;;;;;1.85;1.00;;;16.10;77.40;;;;;;2284845;62;30234;-81
2022/04/06 18:38:27;;;;;;;2.88;0.90;;;16.20;77.30;;;;;;2289157;62;30431;-84
2022/04/06 18:40:53;;;;;;;1.10;0.95;;;16.20;77.20;;;;;;2277418;62;31293;-84
2022/04/06 18:43:22;;;;;;;5.93;1.40;;;16.20;77.30;;;;;;2284272;62;30599;-82
2022/04/06 18:45:48;;;;;;;1.38;0.77;;;16.20;77.10;;;;;;2276404;62;30023;-80
2022/04/06 18:48:14;;;;;;;1.70;0.98;;;16.20;76.80;;;;;;2262225;62;29928;-79
2022/04/06 18:50:41;;;;;;;1.35;0.70;;;16.20;76.50;;;;;;2276407;62;31260;-79
2022/04/06 18:53:07;;;;;;;0.68;0.68;;;16.30;76.40;;;;;;2276425;62;30188;-80
2022/04/06 18:55:33;;;;;;;1.15;0.80;;;16.40;76.40;;;;;;2268665;62;30158;-78
2022/04/06 18:57:58;;;;;;;1.25;0.70;;;16.40;76.30;;;;;;2276338;62;30262;-79
2022/04/06 19:00:24;;;;;;;1.15;0.85;;;16.50;76.30;;;;;;2280706;62;31007;-79
2022/04/06 19:02:50;;;;;;;1.13;0.80;;;16.50;76.20;;;;;;2276978;62;30301;-79
2022/04/06 19:05:17;;;;;;;0.70;0.70;;;16.60;76.20;;;;;;2269968;62;30316;-79
2022/04/06 19:07:43;;;;;;;0.68;0.68;;;16.60;76.00;;;;;;2277224;62;30215;-80
2022/04/06 19:10:13;;;;;;;1.08;0.75;;;16.60;75.90;;;;;;2284086;62;31838;-78
2022/04/06 19:12:39;;;;;;;0.70;0.65;;;16.70;76.10;;;;;;2284584;62;30371;-80
2022/04/06 19:15:07;;;;;;;0.50;0.50;;;16.70;76.10;;;;;;2284323;62;30743;-80
2022/04/06 19:17:33;;;;;;;1.25;0.60;;;16.70;76.00;;;;;;2284218;62;30177;-81
2022/04/06 19:19:59;;;;;;;0.80;0.80;;;16.70;76.00;;;;;;2284215;62;30882;-80
2022/04/06 19:22:25;;;;;;;1.00;0.60;;;16.80;76.00;;;;;;2270201;62;30204;-79
2022/04/06 19:24:52;;;;;;;1.25;1.05;;;16.80;75.90;;;;;;2275146;62;30952;-79
2022/04/06 19:27:19;;;;;;;0.80;0.80;;;16.80;75.90;;;;;;2276162;62;30185;-80
2022/04/06 19:29:45;;;;;;;0.70;0.57;;;16.80;76.00;;;;;;2276128;62;31223;-80
2022/04/06 19:32:10;;;;;;;2.45;1.10;;;16.80;75.80;;;;;;2274407;62;30423;-77
2022/04/06 19:34:36;;;;;;;0.60;0.60;;;16.90;75.70;;;;;;2275306;62;30122;-76
2022/04/06 19:37:03;;;;;;;0.70;0.70;;;16.90;75.50;;;;;;2276107;62;30184;-76
2022/04/06 19:39:33;;;;;;;0.70;0.70;;;16.90;75.40;;;;;;2275829;62;31145;-76
2022/04/06 19:41:59;;;;;;;0.75;0.75;;;16.90;75.20;;;;;;2276154;62;30710;-76
2022/04/06 19:44:26;;;;;;;0.73;0.73;;;16.90;75.00;;;;;;2275717;62;30413;-76
2022/04/06 19:46:52;;;;;;;0.60;0.60;;;16.90;75.20;;;;;;2274290;62;30106;-76
2022/04/06 19:49:18;;;;;;;0.60;0.60;;;17.00;75.10;;;;;;2274299;62;30328;-76
2022/04/06 19:51:46;;;;;;;0.88;0.70;;;17.00;75.10;;;;;;2274783;62;30054;-74
2022/04/06 19:54:12;;;;;;;0.75;0.75;;;17.00;75.00;;;;;;2275105;62;30186;-76
2022/04/06 19:56:38;;;;;;;1.30;0.80;;;17.00;75.00;;;;;;2274205;62;30119;-76
2022/04/06 19:59:13;;;;;;;0.88;0.73;;;17.00;74.90;;;;;;2274286;62;30746;-74
2022/04/06 20:01:39;;;;;;;0.85;0.65;;;17.00;75.00;;;;;;2274846;62;30193;-74
2022/04/06 20:04:08;;;;;;;1.27;0.90;;;17.00;75.00;;;;;;2274473;62;30106;-75
2022/04/06 20:06:34;;;;;;;1.00;0.85;;;17.00;74.70;;;;;;2274140;62;29993;-74
2022/04/06 20:09:00;;;;;;;0.80;0.80;;;17.10;74.70;;;;;;2274752;62;31068;-74
2022/04/06 20:11:26;;;;;;;0.90;0.80;;;17.00;74.50;;;;;;2274633;62;30626;-73
2022/04/06 20:13:52;;;;;;;1.27;0.88;;;17.10;74.60;;;;;;2267224;62;29981;-75
2022/04/06 20:16:18;;;;;;;1.02;0.85;;;17.10;74.40;;;;;;2274229;62;30277;-75
2022/04/06 20:18:45;;;;;;;3.97;0.90;;;17.10;74.40;;;;;;2273891;62;30151;-74
2022/04/06 20:21:12;;;;;;;1.20;0.90;;;17.10;74.20;;;;;;2274331;62;30806;-74
2022/04/06 20:23:38;;;;;;;1.23;0.70;;;17.10;74.20;;;;;;2274921;62;30096;-75
2022/04/06 20:26:04;;;;;;;2.45;0.93;;;17.10;74.10;;;;;;2274111;62;30282;-75
2022/04/06 20:28:34;;;;;;;1.25;0.80;;;17.20;74.00;;;;;;2274008;62;32135;-75
2022/04/06 20:31:00;;;;;;;1.23;0.85;;;17.20;74.00;;;;;;2274169;62;30646;-76
2022/04/06 20:33:26;;;;;;;1.35;0.90;;;17.20;73.90;;;;;;2273359;62;30143;-75